createdAt,value
2022-08-24T04:02:33.033Z,78.25
2022-08-24T04:05:04.465Z,78.19
2022-08-24T04:07:37.737Z,78.20
2022-08-24T04:10:07.432Z,78.33
2022-08-24T04:12:35.971Z,78.32
2022-08-24T04:15:08.296Z,78.47
2022-08-24T04:17:36.951Z,78.39
2022-08-24T04:20:11.166Z,78.42
2022-08-24T04:22:44.223Z,78.44
2022-08-24T04:25:15.219Z,78.42
2022-08-24T04:27:44.218Z,78.54
2022-08-24T04:30:16.761Z,78.76
2022-08-24T04:33:07.599Z,78.76
2022-08-24T04:47:22.340Z,77.52
2022-08-24T04:49:52.736Z,77.49
2022-08-24T04:52:23.081Z,77.70
2022-08-24T04:54:52.663Z,77.99
2022-08-24T04:57:23.944Z,78.00
2022-08-24T04:59:57.020Z,78.22
2022-08-24T05:02:31.038Z,78.29
2022-08-24T05:05:02.625Z,78.47
2022-08-24T05:07:32.064Z,78.44
2022-08-24T05:10:01.400Z,78.31
2022-08-24T05:12:33.142Z,78.32
2022-08-24T05:15:04.919Z,78.51
2022-08-24T05:17:36.997Z,78.56
2022-08-24T05:20:10.816Z,78.56
2022-08-24T05:22:40.249Z,78.67
2022-08-24T05:25:09.869Z,78.80
2022-08-24T05:27:39.005Z,78.74
2022-08-24T05:30:09.779Z,78.70
2022-08-24T05:32:40.348Z,78.75
2022-08-24T05:35:09.830Z,78.68
2022-08-24T05:37:40.501Z,78.78
2022-08-24T05:40:19.939Z,78.90
2022-08-24T05:42:52.251Z,78.69
2022-08-24T05:45:21.989Z,78.28
2022-08-24T05:47:52.280Z,78.42
2022-08-24T05:50:43.207Z,78.57
2022-08-24T05:53:16.334Z,78.41
2022-08-24T05:55:46.085Z,78.42
2022-08-24T05:58:22.999Z,78.51
2022-08-24T06:01:09.500Z,78.37
2022-08-24T06:03:41.240Z,78.18
2022-08-24T06:06:12.641Z,78.33
2022-08-24T06:08:46.511Z,77.92
2022-08-24T06:11:30.584Z,77.70
2022-08-24T06:14:07.266Z,77.72
2022-08-24T06:16:43.957Z,77.59
2022-08-24T06:19:16.881Z,77.82
2022-08-24T06:21:49.865Z,77.63
2022-08-24T06:24:20.164Z,77.60
2022-08-24T06:27:08.089Z,77.36
2022-08-24T06:29:37.799Z,77.30
2022-08-24T06:32:26.380Z,76.94
2022-08-24T06:34:58.916Z,77.18
2022-08-24T06:37:33.877Z,76.81
2022-08-24T06:40:05.062Z,76.64
2022-08-24T06:42:37.126Z,76.57
2022-08-24T06:45:18.986Z,76.35
2022-08-24T06:47:49.456Z,76.76
2022-08-24T06:50:19.433Z,76.62
2022-08-24T06:52:54.666Z,76.81
2022-08-24T06:55:25.751Z,77.21
2022-08-24T06:57:56.150Z,77.13
2022-08-24T07:00:25.534Z,77.07
2022-08-24T07:02:54.690Z,76.83
2022-08-24T07:05:23.863Z,76.92
2022-08-24T07:08:00.695Z,77.08
2022-08-24T07:10:31.091Z,76.95
2022-08-24T07:13:00.182Z,76.83
2022-08-24T07:15:29.377Z,76.51
2022-08-24T07:18:16.351Z,76.55
2022-08-24T07:20:49.620Z,76.67
2022-08-24T07:23:41.506Z,76.94
2022-08-24T07:26:21.622Z,76.69
2022-08-24T07:29:05.658Z,76.65
2022-08-24T07:31:44.502Z,76.64
2022-08-24T07:34:34.438Z,76.42
2022-08-24T07:37:13.087Z,76.39
2022-08-24T07:39:47.890Z,76.11
2022-08-24T07:42:25.593Z,76.31
2022-08-24T07:44:59.277Z,76.34
2022-08-24T07:47:38.158Z,76.36
2022-08-24T07:50:20.064Z,76.76
2022-08-24T07:52:50.298Z,76.48
2022-08-24T07:55:19.498Z,76.30
2022-08-24T07:57:48.517Z,76.19
2022-08-24T08:00:21.855Z,76.40
2022-08-24T08:02:55.070Z,76.08
2022-08-24T08:05:25.220Z,76.16
2022-08-24T08:07:55.942Z,76.36
2022-08-24T08:10:25.768Z,76.20
2022-08-24T08:12:54.713Z,75.95
2022-08-24T08:15:23.835Z,75.92
2022-08-24T08:18:04.832Z,76.12
2022-08-24T08:20:35.401Z,75.88
2022-08-24T08:23:23.290Z,75.99
2022-08-24T08:26:21.068Z,75.90
2022-08-24T08:29:06.737Z,76.18
2022-08-24T08:31:38.648Z,75.85
2022-08-24T08:34:08.824Z,75.63
2022-08-24T08:36:40.425Z,75.55
2022-08-24T08:39:13.190Z,75.33
2022-08-24T08:42:00.587Z,75.19
2022-08-24T08:44:50.862Z,74.98
2022-08-24T08:47:47.567Z,75.31
2022-08-24T08:50:28.966Z,74.87
2022-08-24T08:53:16.349Z,74.79
2022-08-24T08:55:54.010Z,74.52
2022-08-24T08:58:57.082Z,74.74
2022-08-24T09:01:58.281Z,74.45
2022-08-24T09:04:53.183Z,74.61
2022-08-24T09:07:37.577Z,74.43
2022-08-24T09:10:19.122Z,74.17
2022-08-24T09:13:05.992Z,74.16
2022-08-24T09:16:00.127Z,74.18
2022-08-24T09:19:03.557Z,74.19
2022-08-24T09:21:58.643Z,74.04
2022-08-24T09:24:46.053Z,73.85
2022-08-24T09:27:53.684Z,73.92
2022-08-24T09:30:26.695Z,73.75
2022-08-24T09:33:03.220Z,73.66
2022-08-24T09:35:39.842Z,73.59
2022-08-24T09:38:37.109Z,73.71
2022-08-24T09:41:26.606Z,73.42
2022-08-24T09:44:35.822Z,73.51
2022-08-24T09:47:23.527Z,73.50
2022-08-24T09:50:03.457Z,73.14
2022-08-24T09:53:03.935Z,73.17
2022-08-24T09:55:51.848Z,73.38
2022-08-24T09:58:36.125Z,73.37
2022-08-24T10:01:15.794Z,73.43
2022-08-24T10:03:57.517Z,73.34
2022-08-24T10:06:48.767Z,72.98
2022-08-24T10:09:39.326Z,72.65
2022-08-24T10:12:29.377Z,72.64
2022-08-24T10:15:11.731Z,72.67
2022-08-24T10:18:18.367Z,72.22
2022-08-24T10:21:18.215Z,71.95
2022-08-24T10:23:55.942Z,72.10
2022-08-24T10:26:51.376Z,72.17
2022-08-24T10:29:38.801Z,71.95
2022-08-24T10:32:41.826Z,71.76
2022-08-24T10:35:18.072Z,71.61
2022-08-24T10:38:41.149Z,71.56
2022-08-24T10:41:32.819Z,71.31
2022-08-24T10:44:27.008Z,71.28
2022-08-24T10:47:00.306Z,71.27
2022-08-24T10:49:38.274Z,71.15
2022-08-24T10:52:55.204Z,71.15
2022-08-24T10:55:34.136Z,70.97
2022-08-24T10:58:40.373Z,70.88
2022-08-24T11:01:20.627Z,70.84
2022-08-24T11:03:56.032Z,70.82
2022-08-24T11:06:32.163Z,70.56
2022-08-24T11:09:06.898Z,70.62
2022-08-24T11:11:42.420Z,70.45
2022-08-24T11:14:17.840Z,70.29
2022-08-24T11:16:48.106Z,70.18
2022-08-24T11:19:35.501Z,69.96
2022-08-24T11:22:26.403Z,69.85
2022-08-24T11:25:01.879Z,69.89
2022-08-24T11:27:52.666Z,69.53
2022-08-24T11:30:22.865Z,69.43
2022-08-24T11:32:57.185Z,69.27
2022-08-24T11:35:34.696Z,69.22
2022-08-24T11:38:20.671Z,69.28
2022-08-24T11:41:03.328Z,69.14
2022-08-24T11:44:02.705Z,68.96
2022-08-24T11:46:47.591Z,68.56
2022-08-24T11:50:03.866Z,68.53
2022-08-24T11:53:01.367Z,68.22
2022-08-24T11:55:47.266Z,68.05
2022-08-24T11:58:44.257Z,68.13
2022-08-24T12:01:36.046Z,68.13
2022-08-24T12:04:29.204Z,67.78
2022-08-24T12:07:19.794Z,67.91
2022-08-24T12:09:55.252Z,67.71
2022-08-24T12:12:42.707Z,67.47
2022-08-24T12:15:59.500Z,67.55
2022-08-24T12:18:46.990Z,67.51
2022-08-24T12:21:22.630Z,67.30
2022-08-24T12:24:06.626Z,67.25
2022-08-24T12:26:44.518Z,67.17
2022-08-24T12:29:24.011Z,67.07
2022-08-24T12:32:02.021Z,66.83
2022-08-24T12:35:04.421Z,66.81
2022-08-24T12:37:44.840Z,66.63
2022-08-24T12:40:29.581Z,66.59
2022-08-24T12:43:23.837Z,66.32
2022-08-24T12:45:56.891Z,66.01
2022-08-24T12:48:34.454Z,66.26
2022-08-24T12:51:30.714Z,65.77
2022-08-24T12:54:21.398Z,65.80
2022-08-24T12:57:27.298Z,65.77
2022-08-24T13:00:03.619Z,65.53
2022-08-24T13:02:48.079Z,65.38
2022-08-24T13:05:21.728Z,65.35
2022-08-24T13:07:52.852Z,65.33
2022-08-24T13:10:25.450Z,65.41
2022-08-24T13:13:09.013Z,65.11
2022-08-24T13:15:38.303Z,64.97
2022-08-24T13:18:10.886Z,64.87
2022-08-24T13:20:43.760Z,64.91
2022-08-24T13:23:30.670Z,65.08
2022-08-24T13:26:18.445Z,64.63
2022-08-24T13:28:56.600Z,64.58
2022-08-24T13:31:51.695Z,64.35
2022-08-24T13:34:25.779Z,64.57
2022-08-24T13:37:21.275Z,64.55
2022-08-24T13:40:10.759Z,64.24
2022-08-24T13:43:22.987Z,64.20
2022-08-24T13:46:13.327Z,63.90
2022-08-24T13:49:13.250Z,63.83
2022-08-24T13:52:08.365Z,64.03
2022-08-24T13:54:55.697Z,63.93
2022-08-24T13:58:03.151Z,64.01
2022-08-24T14:00:44.211Z,63.54
2022-08-24T14:03:19.138Z,63.45
2022-08-24T14:06:20.653Z,63.64
2022-08-24T14:09:18.575Z,63.57
2022-08-24T14:12:21.551Z,63.29
2022-08-24T14:15:12.531Z,63.41
2022-08-24T14:17:55.856Z,63.43
2022-08-24T14:20:30.969Z,63.46
2022-08-24T14:22:59.033Z,63.30
2022-08-24T14:25:34.374Z,63.04
2022-08-24T14:28:05.941Z,63.13
2022-08-24T14:30:36.135Z,63.09
2022-08-24T14:33:20.415Z,63.10
2022-08-24T14:35:53.120Z,62.91
2022-08-24T14:38:25.115Z,63.04
2022-08-24T14:41:18.958Z,62.94
2022-08-24T14:44:11.765Z,62.70
2022-08-24T14:47:08.825Z,62.54
2022-08-24T14:49:53.563Z,62.68
2022-08-24T14:52:46.887Z,62.57
2022-08-24T14:55:34.532Z,62.73
2022-08-24T14:58:21.411Z,62.55
2022-08-24T15:01:36.271Z,62.52
2022-08-24T15:04:14.570Z,62.52
2022-08-24T15:06:52.275Z,62.53
2022-08-24T15:09:28.203Z,62.30
2022-08-24T15:12:33.230Z,62.35
2022-08-24T15:15:05.473Z,62.40
2022-08-24T15:18:15.151Z,62.46
2022-08-24T15:20:47.372Z,62.18
2022-08-24T15:23:21.371Z,62.09
2022-08-24T15:25:53.322Z,62.20
2022-08-24T15:28:31.906Z,62.02
2022-08-24T15:31:08.609Z,62.05
2022-08-24T15:33:53.966Z,62.11
2022-08-24T15:36:23.104Z,62.15
2022-08-24T15:38:52.614Z,62.06
2022-08-24T15:41:32.143Z,61.91
2022-08-24T15:44:07.535Z,62.04
2022-08-24T15:46:45.046Z,61.89
2022-08-24T15:49:29.427Z,61.78
2022-08-24T15:52:03.062Z,61.72
2022-08-24T15:54:38.196Z,61.60
2022-08-24T15:57:19.715Z,61.58
2022-08-24T15:59:51.433Z,61.59
2022-08-24T16:02:31.046Z,61.61
2022-08-24T16:05:26.189Z,61.58
2022-08-24T16:08:05.224Z,61.60
2022-08-24T16:10:57.987Z,61.58
2022-08-24T16:13:30.864Z,61.62
2022-08-24T16:16:13.658Z,61.58
2022-08-24T16:18:56.533Z,61.69
2022-08-24T16:21:25.796Z,61.72
2022-08-24T16:24:24.059Z,61.81
2022-08-24T16:27:03.529Z,61.87
2022-08-24T16:29:35.346Z,61.94
2022-08-24T16:32:33.517Z,61.76
2022-08-24T16:35:21.633Z,61.82
2022-08-24T16:37:53.281Z,61.89
2022-08-24T16:40:23.064Z,61.91
2022-08-24T16:42:52.758Z,62.03
2022-08-24T16:45:22.471Z,62.05
2022-08-24T16:47:51.616Z,62.03
2022-08-24T16:50:21.361Z,62.12
2022-08-24T16:52:51.622Z,61.94
2022-08-24T16:55:23.288Z,62.11
2022-08-24T16:57:51.597Z,62.11
2022-08-24T17:00:22.410Z,62.11
2022-08-24T17:02:51.156Z,62.16
2022-08-24T17:05:20.205Z,62.33
2022-08-24T17:07:50.566Z,62.32
2022-08-24T17:10:22.168Z,62.34
2022-08-24T17:12:51.246Z,62.37
2022-08-24T17:15:20.885Z,62.32
2022-08-24T17:18:01.948Z,62.32
2022-08-24T17:20:32.322Z,62.43
2022-08-24T17:23:01.686Z,62.62
2022-08-24T17:25:30.844Z,62.67
2022-08-24T17:28:00.924Z,62.74
2022-08-24T17:30:30.948Z,62.76
2022-08-24T17:33:00.889Z,62.77
2022-08-24T17:35:30.445Z,62.85
2022-08-24T17:38:00.345Z,62.93
2022-08-24T17:40:32.283Z,62.94
2022-08-24T17:43:01.273Z,63.02
2022-08-24T17:45:30.050Z,63.19
2022-08-24T17:47:58.629Z,63.23
2022-08-24T17:50:28.984Z,63.22
2022-08-24T17:53:06.728Z,63.34
2022-08-24T17:55:36.071Z,63.40
2022-08-24T17:58:04.550Z,63.37
2022-08-24T18:00:33.556Z,63.48
2022-08-24T18:03:02.045Z,63.63
2022-08-24T18:05:33.414Z,63.48
2022-08-24T18:08:02.666Z,63.45
2022-08-24T18:10:34.872Z,63.79
2022-08-24T18:13:04.053Z,63.79
2022-08-24T18:15:36.297Z,63.80
2022-08-24T18:18:09.806Z,63.87
2022-08-24T18:20:41.104Z,64.04
2022-08-24T18:23:11.251Z,64.09
2022-08-24T18:29:21.978Z,64.30
2022-08-24T18:31:51.023Z,64.23
2022-08-24T18:34:21.893Z,64.47
2022-08-24T18:36:50.893Z,64.54
2022-08-24T18:39:19.669Z,64.49
2022-08-24T18:41:49.793Z,64.71
2022-08-24T18:44:20.913Z,64.76
2022-08-24T18:46:50.284Z,64.71
2022-08-24T18:49:20.785Z,64.73
2022-08-24T18:51:50.454Z,64.65
2022-08-24T18:54:26.133Z,64.82
2022-08-24T18:56:55.237Z,65.06
2022-08-24T18:59:23.602Z,64.98
2022-08-24T19:02:12.474Z,65.11
2022-08-24T19:04:48.234Z,65.19
2022-08-24T19:07:17.351Z,65.07
2022-08-24T19:09:46.088Z,65.11
2022-08-24T19:12:15.250Z,65.24
2022-08-24T19:14:46.479Z,65.15
2022-08-24T19:17:16.409Z,65.50
2022-08-24T19:19:46.702Z,65.53
2022-08-24T19:22:17.010Z,65.38
2022-08-24T19:24:47.353Z,65.54
2022-08-24T19:27:16.963Z,65.49
2022-08-24T19:29:56.282Z,65.69
2022-08-24T19:32:28.648Z,65.59
2022-08-24T19:34:59.042Z,65.75
2022-08-24T19:37:27.853Z,65.71
2022-08-24T19:39:58.588Z,65.94
2022-08-24T19:42:28.593Z,65.83
2022-08-24T19:45:19.414Z,66.01
2022-08-24T19:47:47.788Z,66.03
2022-08-24T19:50:21.209Z,66.12
2022-08-24T19:52:50.061Z,66.12
2022-08-24T19:55:18.954Z,66.26
2022-08-24T19:57:49.911Z,66.28
2022-08-24T20:00:18.400Z,66.36
2022-08-24T20:02:53.427Z,66.31
2022-08-24T20:05:26.390Z,66.48
2022-08-24T20:07:56.389Z,66.57
2022-08-24T20:10:25.516Z,66.64
2022-08-24T20:12:54.211Z,66.72
2022-08-24T20:15:25.749Z,66.74
2022-08-24T20:17:57.108Z,66.75
2022-08-24T20:20:28.346Z,66.87
2022-08-24T20:22:57.229Z,66.85
2022-08-24T20:25:25.526Z,66.98
2022-08-24T20:28:18.524Z,67.10
2022-08-24T20:30:44.953Z,67.15
2022-08-24T20:33:16.917Z,67.20
2022-08-24T20:35:45.959Z,67.26
2022-08-24T20:38:16.193Z,67.26
2022-08-24T20:40:45.768Z,67.31
2022-08-24T20:43:14.812Z,67.38
2022-08-24T20:45:43.382Z,67.46
2022-08-24T20:48:13.733Z,67.47
2022-08-24T20:50:45.960Z,67.57
2022-08-24T20:53:15.138Z,67.52
2022-08-24T20:55:44.042Z,67.61
2022-08-24T20:58:16.300Z,67.69
2022-08-24T21:00:46.526Z,67.77
2022-08-24T21:03:16.774Z,67.84
2022-08-24T21:05:47.522Z,67.91
2022-08-24T21:08:16.208Z,67.99
2022-08-24T21:10:45.397Z,68.05
2022-08-24T21:13:13.768Z,67.93
2022-08-24T21:15:42.918Z,68.06
2022-08-24T21:18:12.579Z,68.04
2022-08-24T21:20:49.251Z,68.06
2022-08-24T21:23:34.344Z,68.14
2022-08-24T21:26:05.336Z,68.29
2022-08-24T21:28:35.871Z,68.35
2022-08-24T21:31:06.345Z,68.43
2022-08-24T21:33:55.602Z,68.55
2022-08-24T21:36:40.111Z,68.55
2022-08-24T21:39:11.165Z,68.60
2022-08-24T21:41:45.533Z,68.62
2022-08-24T21:44:14.851Z,68.56
2022-08-24T21:46:43.783Z,68.56
2022-08-24T21:49:15.631Z,68.67
2022-08-24T21:51:44.544Z,68.76
2022-08-24T21:59:04.768Z,68.91
2022-08-24T22:06:17.072Z,69.26
2022-08-24T22:10:44.305Z,69.31
2022-08-24T22:44:33.427Z,69.22
2022-08-24T22:47:32.394Z,69.14
2022-08-24T22:50:06.060Z,69.14
2022-08-24T22:52:35.300Z,69.14
2022-08-24T22:55:05.106Z,69.19
2022-08-24T22:57:34.286Z,69.14
